Weather observations for the past three days for
Preston, Fillmore County Airport
Imperial (Metric)
Date Time (cdt) Wind (mph) Vis. (mi.) Weather Sky Cond. Temperature (ºF) Relative Humidity Wind Chill (°F) Heat Index (°F) Pressure Precipitation (in)
Air Dwpt 6 hour altimeter (in) sea level (mb) 1 hr 3 hr 6 hr
Max. Min.
09 18:55 NW 18 G 28 10.00 Fair CLR 59 21.2 23% 29.83 0.0
09 18:35 NW 15 G 24 10.00 Fair CLR 59 21.2 23% 29.83 0.0
09 18:15 N 16 10.00 Fair CLR 60.8 23 23% 29.82 0.0
09 17:55 N 16 G 23 10.00 Fair CLR 60.8 23 23% 29.81 0.0
09 17:35 NW 16 G 24 10.00 Fair CLR 60.8 21.2 22% 29.8 0.0
09 17:15 NW 17 G 29 10.00 Fair CLR 60.8 23 23% 29.79 0.0
09 16:55 N 16 G 26 10.00 Fair CLR 60.8 23 23% 29.79 0.0
09 16:35 N 15 10.00 Fair CLR 60.8 24.8 25% 29.78 0.0
09 16:15 N 15 G 29 10.00 Fair CLR 60.8 24.8 25% 29.77 0.0
09 15:55 NW 23 10.00 Fair and Breezy CLR 62.6 24.8 24% 29.77 0.0
09 15:35 NW 15 G 26 10.00 Fair CLR 60.8 24.8 25% 29.77 0.0
09 15:15 NW 21 G 32 10.00 Fair and Breezy CLR 62.6 24.8 24% 29.76 0.0
09 14:55 N 20 G 26 10.00 Fair CLR 62.6 26.6 25% 29.75 0.0
09 14:35 NW 20 G 30 10.00 Fair CLR 60.8 28.4 29% 29.75 0.0
09 14:15 NW 18 G 30 10.00 Fair CLR 60.8 28.4 29% 29.75 0.0
09 13:55 N 20 G 30 10.00 Fair CLR 60.8 30.2 31% 29.74 0.0
09 13:35 NW 18 G 31 10.00 Fair CLR 60.8 30.2 31% 29.74 0.0
09 13:15 N 21 G 30 10.00 A Few Clouds and Breezy FEW055 60.8 32 34% 29.73 0.0
09 12:55 NW 17 G 29 10.00 A Few Clouds FEW050 FEW055 59 33.8 39% 29.73 0.0
09 12:35 NW 17 G 24 10.00 Partly Cloudy FEW050 SCT055 59 35.6 42% 29.73 0.0
09 12:15 N 23 G 31 10.00 Partly Cloudy and Breezy SCT049 59 35.6 42% 29.72 0.0
09 11:55 NW 21 G 28 10.00 Partly Cloudy and Breezy SCT047 SCT050 59 37.4 45% 29.72 0.0
09 11:35 NW 20 G 32 10.00 Partly Cloudy SCT041 BKN048 SCT055 59 37.4 45% 29.72 0.0
09 11:15 NW 17 G 25 10.00 Mostly Cloudy SCT040 BKN050 59 41 51% 29.72 0.0
09 10:55 NW 21 G 28 10.00 Partly Cloudy and Breezy SCT041 SCT049 59 39.2 48% 29.7 0.0
09 10:35 NW 22 G 31 10.00 Mostly Cloudy and Breezy SCT035 BKN042 57.2 39.2 51% 29.69 0.0
09 10:15 NW 21 G 28 10.00 Mostly Cloudy and Breezy SCT035 BKN043 59 41 51% 29.69 0.0
09 09:55 NW 20 G 26 10.00 Partly Cloudy SCT036 SCT043 59 42.8 55% 29.68 0.0
09 09:35 NW 20 10.00 Mostly Cloudy FEW035 SCT075 BKN080 57.2 41 55% 29.67 0.0
09 09:15 NW 17 10.00 Overcast SCT070 BKN080 OVC090 55.4 39.2 55% 29.67 0.0
09 08:55 NW 14 10.00 Overcast BKN065 OVC080 53.6 35.6 51% 29.66 0.0
09 08:35 W 12 10.00 Mostly Cloudy SCT075 BKN095 53.6 33.8 47% 29.67 0.0
09 08:15 W 9 10.00 Partly Cloudy SCT095 51.8 32 47% 29.66 0.0
09 07:55 NW 9 10.00 A Few Clouds FEW090 51.8 32 47% 29.66 0.0
09 07:35 W 9 G 15 10.00 A Few Clouds FEW080 FEW095 50 32 50% 47 29.64 0.0
09 07:15 W 10 10.00 A Few Clouds FEW070 FEW095 50 32 50% 46 29.65 0.0
09 06:55 NW 9 G 20 10.00 Partly Cloudy SCT095 50 32 50% 47 29.65 0.0
09 06:35 NW 13 G 21 10.00 Partly Cloudy SCT100 50 32 50% 46 29.64 0.0
09 06:15 SW 7 10.00 Mostly Cloudy BKN100 48.2 30.2 50% 46 29.6 0.0
09 05:55 SW 9 10.00 Fair CLR 48.2 30.2 50% 45 29.59 0.0
09 05:35 SW 12 10.00 A Few Clouds FEW120 50 30.2 47% 46 29.6 0.0
09 05:15 SW 10 10.00 Fair CLR 48.2 28.4 46% 44 29.6 0.0
09 04:55 W 7 10.00 Fair CLR 50 28.4 43% 48 29.6 0.0
09 04:35 SW 7 10.00 Fair CLR 48.2 28.4 46% 46 29.61 0.0
09 04:15 SW 8 10.00 Fair CLR 50 28.4 43% 47 29.61 0.0
09 03:55 SW 8 10.00 Fair CLR 48.2 28.4 46% 45 29.61 0.0
09 03:35 SW 6 10.00 Fair CLR 48.2 28.4 46% 46 29.61 0.0
09 03:15 SW 10 10.00 Fair CLR 48.2 30.2 50% 44 29.61 0.0
09 02:55 SW 7 10.00 Fair CLR 50 28.4 43% 48 29.61 0.0
09 02:35 W 7 10.00 Fair CLR 51.8 28.4 41% 29.61 0.0
09 02:15 W 8 10.00 Fair CLR 51.8 30.2 44% 29.62 0.0
09 01:55 W 9 10.00 Fair CLR 51.8 30.2 44% 29.62 0.0
09 01:35 NW 9 10.00 Fair CLR 53.6 30.2 41% 29.63 0.0
09 01:15 NW 10 10.00 Fair CLR 55.4 28.4 36% 29.63 0.0
09 00:55 W 12 10.00 Fair CLR 53.6 30.2 41% 29.63 0.0
09 00:35 NW 9 10.00 Fair CLR 55.4 30.2 38% 29.62 0.0
09 00:15 NW 13 10.00 Fair CLR 57.2 28.4 33% 29.62 0.0
08 23:55 NW 14 10.00 Fair CLR 57.2 28.4 33% 29.62 0.0
08 23:35 NW 13 10.00 Fair CLR 59 28.4 31% 29.62 0.0
08 23:15 NW 13 G 20 10.00 A Few Clouds FEW100 59 30.2 34% 29.62 0.0
08 22:55 W 12 G 17 10.00 A Few Clouds FEW110 59 30.2 34% 29.62 0.0
08 22:35 W 12 10.00 A Few Clouds FEW110 59 30.2 34% 29.61 0.0
08 22:15 W 10 10.00 Fair CLR 59 30.2 34% 29.61 0.0
08 21:55 W 10 10.00 A Few Clouds FEW110 60.8 30.2 31% 29.6 0.0
08 21:35 W 10 10.00 Fair CLR 60.8 30.2 31% 29.6 0.0
08 21:15 W 9 10.00 Fair CLR 62.6 30.2 30% 29.6 0.0
08 20:55 W 10 10.00 Fair CLR 62.6 30.2 30% 29.6 0.0
08 20:35 W 10 10.00 A Few Clouds FEW100 64.4 30.2 28% 29.59 0.0
08 20:15 W 12 G 22 10.00 Mostly Cloudy SCT100 BKN120 66.2 28.4 24% 29.6 0.0
08 19:55 W 9 10.00 Partly Cloudy FEW100 SCT120 64.4 28.4 26% 29.59 0.0
08 19:35 W 10 G 16 10.00 A Few Clouds FEW110 66.2 28.4 24% 29.58 0.0
08 19:15 W 9 10.00 A Few Clouds FEW110 68 26.6 21% 29.59 0.0
08 18:55 W 10 G 16 10.00 Fair CLR 69.8 28.4 21% 29.59 0.0
08 18:35 NW 13 G 21 10.00 Fair CLR 69.8 28.4 21% 29.6 0.0
08 18:15 W 15 G 24 10.00 Fair CLR 69.8 28.4 21% 29.6 0.0
08 17:55 W 13 G 21 10.00 Fair CLR 69.8 28.4 21% 29.61 0.0
08 17:35 W 17 G 31 10.00 Fair CLR 69.8 28.4 21% 29.61 0.0
08 17:15 W 21 10.00 A Few Clouds and Breezy FEW120 69.8 26.6 20% 29.62 0.0
08 16:55 NW 15 G 23 10.00 Fair CLR 69.8 26.6 20% 29.62 0.0
08 16:35 W 22 G 33 10.00 Fair and Breezy CLR 69.8 26.6 20% 29.63 0.0
08 16:15 W 13 G 25 10.00 A Few Clouds FEW110 69.8 26.6 20% 29.64 0.0
08 15:55 W 12 G 28 10.00 A Few Clouds FEW110 69.8 26.6 20% 29.64 0.0
08 15:35 W 9 G 32 10.00 A Few Clouds FEW110 69.8 26.6 20% 29.65 0.0
08 15:15 W 16 G 23 10.00 Partly Cloudy SCT110 71.6 26.6 19% 29.65 0.0
08 14:55 W 21 G 26 10.00 A Few Clouds and Breezy FEW100 69.8 26.6 20% 29.66 0.0
08 14:35 W 20 G 25 10.00 A Few Clouds FEW100 69.8 26.6 20% 29.67 0.0
08 14:15 W 13 G 21 10.00 A Few Clouds FEW100 69.8 26.6 20% 29.68 0.0
08 13:55 SW 15 G 22 10.00 A Few Clouds FEW100 68 26.6 21% 29.69 0.0
08 13:35 W 18 G 25 10.00 Partly Cloudy SCT100 68 24.8 20% 29.69 0.0
08 13:15 W 16 G 25 10.00 A Few Clouds FEW100 68 24.8 20% 29.71 0.0
08 12:55 NW 8 G 23 10.00 Partly Cloudy SCT095 68 23 18% 29.72 0.0
08 12:35 W 12 G 24 10.00 NULL NULL 66.2 26.6 22% 29.73 0.0
08 12:15 NW 15 10.00 NULL NULL 64.4 24.8 22% 29.74 0.0
08 11:55 W 12 G 18 10.00 Partly Cloudy SCT110 64.4 26.6 24% 29.75 0.0
08 11:35 SW 15 G 21 10.00 NULL NULL 64.4 26.6 24% 29.75 0.0
08 11:15 SW 13 G 20 10.00 Fair CLR 64.4 26.6 24% 29.76 0.0
08 10:55 SW 12 G 26 10.00 Fair CLR 62.6 26.6 25% 29.77 0.0
08 10:35 SW 17 G 24 10.00 Fair CLR 60.8 26.6 27% 29.78 0.0
08 10:15 S 15 10.00 Fair CLR 60.8 26.6 27% 29.78 0.0
08 09:55 SW 14 G 21 10.00 Fair CLR 59 26.6 29% 29.79 0.0
08 09:35 SW 16 10.00 Fair CLR 57.2 26.6 31% 29.8 0.0
08 09:15 SW 13 10.00 Fair CLR 55.4 24.8 31% 29.8 0.0
08 08:55 S 10 10.00 Fair CLR 53.6 24.8 33% 29.8 0.0
08 08:35 SW 10 10.00 Fair CLR 51.8 23 32% 29.8 0.0
08 08:15 S 8 10.00 Fair CLR 50 24.8 37% 47 29.8 0.0
08 07:55 SW 7 10.00 Fair CLR 48.2 24.8 40% 46 29.8 0.0
08 07:35 SW 9 10.00 Fair CLR 46.4 23 40% 42 29.81 0.0
08 07:15 SW 8 10.00 Fair CLR 44.6 23 43% 41 29.8 0.0
08 06:55 S 12 10.00 Fair CLR 44.6 21.2 39% 39 29.8 0.0
08 06:35 S 12 10.00 Fair CLR 42.8 21.2 42% 37 29.8 0.0
08 06:15 S 10 10.00 Fair CLR 42.8 21.2 42% 38 29.8 0.0
08 05:55 S 10 10.00 Fair CLR 42.8 21.2 42% 38 29.8 0.0
08 05:35 S 10 10.00 Fair CLR 41 21.2 45% 35 29.8 0.0
08 05:15 S 10 10.00 Fair CLR 42.8 21.2 42% 38 29.8 0.0
08 04:55 S 9 10.00 Fair CLR 42.8 21.2 42% 38 29.81 0.0
08 04:35 S 8 10.00 Fair CLR 42.8 21.2 42% 39 29.81 0.0
08 04:15 S 8 10.00 Fair CLR 41 21.2 45% 36 29.81 0.0
08 03:55 S 8 10.00 Fair CLR 41 21.2 45% 36 29.81 0.0
08 03:35 S 8 10.00 Fair CLR 41 21.2 45% 36 29.82 0.0
08 03:15 S 8 10.00 Fair CLR 41 21.2 45% 36 29.82 0.0
08 02:55 S 8 10.00 Fair CLR 41 19.4 42% 36 29.82 0.0
08 02:35 S 9 10.00 Fair CLR 41 19.4 42% 36 29.83 0.0
08 02:15 S 8 10.00 Fair CLR 41 19.4 42% 36 29.83 0.0
08 01:55 S 7 10.00 Fair CLR 41 19.4 42% 37 29.83 0.0
08 01:35 S 7 10.00 Fair CLR 41 19.4 42% 37 29.83 0.0
08 01:15 SE 6 10.00 Fair CLR 42.8 17.6 36% 40 29.83 0.0
08 00:55 S 6 10.00 Fair CLR 42.8 17.6 36% 40 29.84 0.0
08 00:35 S 7 10.00 Fair CLR 42.8 19.4 39% 39 29.84 0.0
08 00:15 S 6 10.00 Fair CLR 44.6 19.4 37% 42 29.85 0.0
07 23:55 SE 6 10.00 Fair CLR 44.6 19.4 37% 42 29.85 0.0
07 23:35 SE 6 10.00 Fair CLR 44.6 19.4 37% 42 29.85 0.0
07 23:15 SE 6 10.00 Fair CLR 46.4 19.4 34% 44 29.85 0.0
07 22:55 SE 6 10.00 Fair CLR 44.6 19.4 37% 42 29.85 0.0
07 22:35 SE 6 10.00 Fair CLR 46.4 17.6 32% 44 29.85 0.0
07 22:15 E 7 10.00 Fair CLR 46.4 17.6 32% 43 29.84 0.0
07 21:55 E 6 9.00 Fair CLR 48.2 17.6 29% 46 29.84 0.0
07 21:35 NE 5 10.00 Fair CLR 48.2 17.6 29% 47 29.84 0.0
07 21:15 NE 5 10.00 Fair CLR 48.2 17.6 29% 47 29.83 0.0
07 20:55 NE 5 8.00 Fair CLR 48.2 17.6 29% 47 29.83 0.0
07 20:35 NE 5 10.00 Fair CLR 51.8 17.6 26% 29.82 0.0
07 20:15 N 6 10.00 Fair CLR 51.8 17.6 26% 29.82 0.0
07 19:55 N 7 10.00 Fair CLR 53.6 17.6 24% 29.82 0.0
07 19:35 NW 9 10.00 Fair CLR 55.4 17.6 23% 29.81 0.0
07 19:15 NW 9 10.00 Fair CLR 55.4 17.6 23% 29.81 0.0
07 18:55 NW 12 10.00 Fair CLR 57.2 15.8 20% 29.81 0.0
07 18:35 NW 13 G 20 10.00 Fair CLR 57.2 17.6 21% 29.81 0.0
07 18:15 NW 17 G 23 10.00 Fair CLR 57.2 15.8 20% 29.81 0.0
07 17:55 NW 14 G 21 10.00 Fair CLR 57.2 15.8 20% 29.82 0.0
07 17:35 NW 16 G 23 10.00 Fair CLR 57.2 15.8 20% 29.81 0.0
07 17:15 W 12 G 20 10.00 Fair CLR 57.2 15.8 20% 29.82 0.0
07 16:55 NW 16 G 23 10.00 Fair CLR 59 17.6 20% 29.81 0.0
07 16:35 NW 10 G 18 10.00 Fair CLR 57.2 17.6 21% 29.81 0.0
07 16:15 NW 14 G 25 10.00 Fair CLR 57.2 17.6 21% 29.81 0.0
07 15:55 NW 15 G 23 10.00 Fair CLR 57.2 17.6 21% 29.82 0.0
07 15:35 W 12 G 23 10.00 Fair CLR 57.2 17.6 21% 29.82 0.0
07 15:15 Vrbl 5 G 20 10.00 Fair CLR 57.2 19.4 23% 29.83 0.0
07 14:55 NW 13 G 20 10.00 Fair CLR 55.4 19.4 24% 29.84 0.0
07 14:35 W 16 G 28 10.00 Fair CLR 55.4 21.2 26% 29.83 0.0
07 14:15 NW 12 G 28 10.00 Fair CLR 55.4 19.4 24% 29.84 0.0
07 13:55 NW 12 10.00 Fair CLR 55.4 21.2 26% 29.84 0.0
07 13:35 NW 13 G 21 10.00 Fair CLR 55.4 21.2 26% 29.84 0.0
07 13:15 W 14 G 20 10.00 Fair CLR 53.6 23 30% 29.84 0.0
07 12:55 NW 16 10.00 Fair CLR 53.6 24.8 33% 29.85 0.0
07 12:35 NW 14 10.00 Fair CLR 53.6 24.8 33% 29.86 0.0
07 12:15 NW 12 G 21 10.00 Fair CLR 53.6 24.8 33% 29.86 0.0
07 11:55 N 14 10.00 Fair CLR 51.8 26.6 38% 29.86 0.0
07 11:35 N 10 10.00 Fair CLR 51.8 26.6 38% 29.87 0.0
07 11:15 N 8 10.00 Fair CLR 50 26.6 40% 47 29.87 0.0
07 10:55 Vrbl 6 G 17 10.00 Fair CLR 50 26.6 40% 48 29.87 0.0
07 10:35 Vrbl 6 10.00 Fair CLR 48.2 26.6 43% 46 29.87 0.0
07 10:15 Vrbl 6 10.00 Fair CLR 48.2 24.8 40% 46 29.88 0.0
07 09:55 NE 8 10.00 Fair CLR 48.2 24.8 40% 45 29.88 0.0
07 09:35 Vrbl 6 10.00 Fair CLR 46.4 24.8 43% 44 29.89 0.0
07 09:15 NE 5 10.00 A Few Clouds FEW060 FEW070 44.6 26.6 49% 43 29.9 0.0
07 08:55 N 6 10.00 Mostly Cloudy BKN070 BKN085 42.8 26.6 53% 40 29.91 0.0
07 08:35 N 6 10.00 Partly Cloudy FEW065 SCT085 41 28.4 61% 38 29.9 0.0
07 08:15 N 5 10.00 Mostly Cloudy BKN070 39.2 28.4 65% 36 29.91 0.0
07 07:55 N 5 10.00 Overcast SCT065 BKN075 OVC090 39.2 28.4 65% 36 29.91 0.0
07 07:35 Calm 10.00 Overcast BKN065 OVC075 37.4 26.6 65% 29.9 0.0
07 07:15 NE 3 10.00 Overcast FEW044 FEW055 OVC065 35.6 28.4 75% 29.9 0.0
07 06:55 Calm 10.00 Overcast FEW044 SCT070 OVC085 35.6 30.2 81% 29.9 0.0
07 06:35 Calm 10.00 Mostly Cloudy SCT060 BKN075 BKN085 35.6 26.6 70% 29.9 0.0
07 06:15 Calm 10.00 Overcast SCT060 OVC070 33.8 26.6 75% 29.9 0.0
07 05:55 Calm 10.00 Overcast OVC070 35.6 24.8 65% 29.9 0.0
07 05:35 S 6 10.00 Mostly Cloudy FEW060 BKN075 BKN090 35.6 24.8 65% 31 29.9 0.0
07 05:15 S 9 10.00 Partly Cloudy SCT070 35.6 24.8 65% 29 29.9 0.0
07 04:55 S 6 10.00 Fair CLR 35.6 24.8 65% 31 29.91 0.0
07 04:35 S 7 10.00 Mostly Cloudy FEW038 FEW048 BKN060 37.4 24.8 60% 33 29.91 0.0
07 04:15 S 6 10.00 Overcast FEW034 BKN060 OVC070 37.4 24.8 60% 33 29.92 0.0
07 03:55 S 8 10.00 Overcast FEW039 FEW049 OVC070 37.4 24.8 60% 32 29.92 0.0
07 03:35 SW 7 10.00 Mostly Cloudy FEW039 SCT048 BKN060 37.4 24.8 60% 33 29.93 0.0
07 03:15 S 7 10.00 Overcast BKN060 OVC070 37.4 24.8 60% 33 29.94 0.0
07 02:55 S 7 10.00 Overcast SCT060 OVC070 37.4 24.8 60% 33 29.94 0.0
07 02:35 S 6 10.00 Overcast FEW046 SCT060 OVC070 35.6 24.8 65% 31 29.94 0.0
07 02:15 S 7 10.00 Overcast BKN065 OVC075 35.6 24.8 65% 31 29.94 0.0
07 01:55 S 7 10.00 Overcast OVC070 33.8 26.6 75% 28 29.95 0.0
07 01:35 S 6 10.00 Overcast OVC070 33.8 24.8 70% 29 29.95 0.0
07 01:15 S 5 10.00 Overcast OVC070 35.6 23 60% 32 29.95 0.0
07 00:55 Calm 10.00 Overcast OVC075 33.8 24.8 70% 29.95 0.0
07 00:35 SE 3 10.00 Overcast OVC075 33.8 23 65% 29.96 0.0
07 00:15 Calm 10.00 Mostly Cloudy BKN075 33.8 23 65% 29.96 0.0
06 23:55 Calm 10.00 Fair CLR 33.8 23 65% 29.96 0.0
06 23:35 S 5 10.00 Fair CLR 35.6 23 60% 32 29.96 0.0
06 23:15 S 6 10.00 Fair CLR 33.8 23 65% 29 29.97 0.0
06 22:55 S 6 10.00 Fair CLR 37.4 23 56% 33 29.97 0.0
06 22:35 S 3 10.00 Fair CLR 37.4 23 56% 29.98 0.0
06 22:15 Calm 10.00 Fair CLR 37.4 23 56% 29.98 0.0
06 21:55 Calm 10.00 Fair CLR 37.4 23 56% 29.98 0.0
06 21:35 NW 5 10.00 Fair CLR 37.4 23 56% 34 29.98 0.0
06 21:15 NW 5 10.00 Fair CLR 37.4 23 56% 34 29.98 0.0
06 20:55 NW 3 10.00 Fair CLR 39.2 23 52% 29.97 0.0
06 20:35 NW 6 10.00 Fair CLR 39.2 23 52% 36 29.97 0.0
06 20:15 NW 8 10.00 Fair CLR 42.8 23 46% 39 29.97 0.0
06 19:55 NW 9 G 15 10.00 A Few Clouds FEW055 44.6 23 43% 40 29.97 0.0
06 19:35 NW 10 G 18 10.00 Partly Cloudy SCT055 44.6 23 43% 40 29.97 0.0
06 19:15 NW 14 10.00 Mostly Cloudy BKN055 46.4 23 40% 41 29.97 0.0
Date Time (cdt) Wind (mph) Vis. (mi.) Weather Sky Cond. Air Dwpt Max. Min. Relative Humidity Wind Chill (°F) Heat Index (°F) altimeter (in) sea level (mb) 1 hr 3 hr 6 hr
6 hour
Temperature (ºF) Pressure Precipitation (in)